Time;durP1;ratioP1;P1;durP2;ratioP2;P2;SDS_P1;SDS_P2;PMS_P1;PMS_P2;Temp;Humidity;BMP_temperature;BMP_pressure;BME280_temperature;BME280_humidity;BME280_pressure;Samples;Min_cycle;Max_cycle;Signal;HPM_P1;HPM_P2
2023/03/04 00:00:25;;;;;;;60.60;19.47;;;0.40;99.90;;;;;;9498578;23;20167;-84
2023/03/04 00:04:10;;;;;;;48.53;16.63;;;0.50;99.90;;;;;;9499083;23;20695;-83
2023/03/04 00:07:56;;;;;;;52.27;17.60;;;0.40;99.90;;;;;;9474545;23;20313;-84
2023/03/04 00:11:42;;;;;;;52.57;17.70;;;0.40;99.90;;;;;;9499235;23;20164;-84
2023/03/04 00:15:27;;;;;;;49.97;17.67;;;0.40;99.90;;;;;;9499841;23;20172;-84
2023/03/04 00:19:13;;;;;;;51.93;18.03;;;0.50;99.90;;;;;;9500283;23;20176;-83
2023/03/04 00:22:59;;;;;;;62.07;18.73;;;0.50;99.90;;;;;;9518643;23;20168;-84
2023/03/04 00:26:45;;;;;;;49.07;18.07;;;0.50;99.90;;;;;;9530954;23;20239;-82
2023/03/04 00:30:31;;;;;;;43.17;15.73;;;0.50;99.90;;;;;;9501278;23;20156;-83
2023/03/04 00:34:16;;;;;;;48.90;17.40;;;0.50;99.90;;;;;;9501333;23;20196;-83
2023/03/04 00:38:02;;;;;;;46.07;17.03;;;0.50;99.90;;;;;;9499598;23;20227;-83
2023/03/04 00:41:48;;;;;;;42.07;16.00;;;0.50;99.90;;;;;;9499219;23;20235;-83
2023/03/04 00:45:33;;;;;;;44.40;17.00;;;0.50;99.90;;;;;;9500886;23;20153;-83
2023/03/04 00:49:19;;;;;;;39.67;15.67;;;0.50;99.90;;;;;;9497391;23;20175;-83
2023/03/04 00:53:05;;;;;;;43.33;16.23;;;0.50;99.90;;;;;;9500079;23;20168;-83
2023/03/04 00:56:50;;;;;;;42.00;16.33;;;0.50;99.90;;;;;;9497553;23;20193;-84
2023/03/04 01:00:36;;;;;;;41.93;15.93;;;0.50;99.90;;;;;;9497995;23;20507;-84
2023/03/04 01:04:22;;;;;;;41.37;16.03;;;0.50;99.90;;;;;;9496470;23;20172;-83
2023/03/04 01:08:07;;;;;;;43.40;16.10;;;0.50;99.90;;;;;;9500829;23;20229;-84
2023/03/04 01:11:53;;;;;;;40.97;16.43;;;0.50;99.90;;;;;;9501889;23;20168;-83
2023/03/04 01:15:39;;;;;;;45.63;17.67;;;0.50;99.90;;;;;;9503431;23;20809;-83
2023/03/04 01:19:24;;;;;;;44.00;17.00;;;0.50;99.90;;;;;;9501012;23;20246;-83
2023/03/04 01:23:10;;;;;;;41.00;16.83;;;0.50;99.90;;;;;;9476699;23;20180;-83
2023/03/04 01:26:56;;;;;;;44.07;17.30;;;0.50;99.90;;;;;;9502194;23;20156;-84
2023/03/04 01:30:41;;;;;;;41.47;17.27;;;0.50;99.90;;;;;;9502598;23;20156;-83
2023/03/04 01:34:27;;;;;;;41.90;16.63;;;0.50;99.90;;;;;;9500884;23;20239;-83
2023/03/04 01:38:13;;;;;;;43.07;16.87;;;0.60;99.90;;;;;;9502358;23;20172;-83
2023/03/04 01:41:58;;;;;;;43.37;17.43;;;0.50;99.90;;;;;;9500642;23;20156;-83
2023/03/04 01:45:44;;;;;;;36.90;16.60;;;0.70;99.90;;;;;;9500769;23;20156;-83
2023/03/04 01:49:30;;;;;;;36.73;16.50;;;0.60;99.90;;;;;;9476351;23;20168;-84
2023/03/04 01:53:20;;;;;;;38.33;16.33;;;0.60;99.90;;;;;;9501167;23;20636;-84
2023/03/04 01:57:19;;;;;;;35.03;16.43;;;0.50;99.90;;;;;;9501458;23;20215;-84
2023/03/04 02:01:04;;;;;;;38.80;17.03;;;0.50;99.90;;;;;;9476245;23;20176;-84
2023/03/04 02:04:50;;;;;;;37.87;16.37;;;0.50;99.90;;;;;;9500797;23;20215;-83
2023/03/04 02:08:35;;;;;;;36.33;16.30;;;0.60;99.90;;;;;;9500280;23;20180;-83
2023/03/04 02:12:21;;;;;;;39.97;16.37;;;0.60;99.90;;;;;;9500807;23;20183;-84
2023/03/04 02:16:07;;;;;;;31.23;15.57;;;0.60;99.90;;;;;;9501934;23;20156;-84
2023/03/04 02:20:09;;;;;;;35.47;15.93;;;0.60;99.90;;;;;;9476067;23;20235;-84
2023/03/04 02:24:38;;;;;;;31.27;14.63;;;0.60;99.90;;;;;;9525285;23;20183;-84
2023/03/04 02:28:23;;;;;;;33.33;15.63;;;0.60;99.90;;;;;;9503455;23;20258;-83
2023/03/04 02:32:13;;;;;;;32.10;15.00;;;0.60;99.90;;;;;;9501167;23;20191;-83
2023/03/04 02:35:59;;;;;;;36.27;16.10;;;0.60;99.90;;;;;;9501515;23;20164;-84
2023/03/04 02:39:47;;;;;;;31.33;14.33;;;0.60;99.90;;;;;;9503142;23;20239;-84
2023/03/04 02:43:32;;;;;;;31.43;14.83;;;0.60;99.90;;;;;;9501750;23;20207;-83
2023/03/04 02:47:18;;;;;;;28.73;14.03;;;0.50;99.90;;;;;;9476451;23;20186;-83
2023/03/04 02:51:04;;;;;;;29.93;15.47;;;0.60;99.90;;;;;;9477998;23;20168;-84
2023/03/04 02:54:50;;;;;;;27.20;14.93;;;0.60;99.90;;;;;;9503308;23;20179;-84
2023/03/04 02:58:37;;;;;;;32.87;14.57;;;0.60;99.90;;;;;;9502407;23;20214;-84
2023/03/04 03:02:22;;;;;;;33.80;15.23;;;0.60;99.90;;;;;;9501138;23;20190;-85
2023/03/04 03:06:08;;;;;;;31.77;16.07;;;0.60;99.90;;;;;;9501763;23;20176;-83
2023/03/04 03:09:54;;;;;;;29.33;15.20;;;0.50;99.90;;;;;;9502183;23;20167;-84
2023/03/04 03:13:39;;;;;;;32.33;15.90;;;0.60;99.90;;;;;;9503929;23;20187;-84
2023/03/04 03:17:25;;;;;;;29.33;14.77;;;0.50;99.90;;;;;;9502276;23;20199;-84
2023/03/04 03:21:11;;;;;;;32.33;15.27;;;0.60;99.90;;;;;;9500513;23;20183;-84
2023/03/04 03:24:56;;;;;;;29.20;14.80;;;0.70;99.90;;;;;;9500690;23;20180;-84
2023/03/04 03:28:42;;;;;;;32.83;15.77;;;0.60;99.90;;;;;;9500456;23;20170;-84
2023/03/04 03:32:27;;;;;;;31.57;15.43;;;0.50;99.90;;;;;;9502588;23;20179;-83
2023/03/04 03:36:13;;;;;;;30.90;15.33;;;0.50;99.90;;;;;;9500762;23;20570;-83
2023/03/04 03:39:59;;;;;;;32.90;15.73;;;0.50;99.90;;;;;;9500076;23;20222;-84
2023/03/04 03:43:44;;;;;;;30.43;15.57;;;0.50;99.90;;;;;;9501730;23;20526;-84
2023/03/04 03:47:30;;;;;;;31.43;14.87;;;0.50;99.90;;;;;;9500449;23;20222;-84
2023/03/04 03:51:15;;;;;;;32.10;14.77;;;0.50;99.90;;;;;;9476138;23;20630;-84
2023/03/04 03:55:01;;;;;;;34.37;15.63;;;0.60;99.90;;;;;;9502441;23;20182;-85
2023/03/04 03:58:47;;;;;;;26.90;13.63;;;0.60;99.90;;;;;;9500584;23;20208;-85
2023/03/04 04:02:32;;;;;;;32.53;14.73;;;0.60;99.90;;;;;;9501401;23;20606;-84
2023/03/04 04:06:18;;;;;;;29.00;14.90;;;0.60;99.90;;;;;;9502702;23;20174;-85
2023/03/04 04:10:05;;;;;;;29.33;13.60;;;0.60;99.90;;;;;;9500911;23;20168;-83
2023/03/04 04:13:50;;;;;;;35.13;15.00;;;0.60;99.90;;;;;;9503381;23;20491;-84
2023/03/04 04:17:36;;;;;;;34.40;15.80;;;0.60;99.90;;;;;;9498067;23;20187;-83
2023/03/04 04:21:22;;;;;;;33.07;14.07;;;0.60;99.90;;;;;;9499674;23;20190;-84
2023/03/04 04:25:09;;;;;;;33.87;15.10;;;0.60;99.90;;;;;;9534611;23;20228;-85
2023/03/04 04:28:54;;;;;;;32.23;14.63;;;0.60;99.90;;;;;;9518256;23;20164;-85
2023/03/04 04:32:40;;;;;;;31.10;14.97;;;0.60;99.90;;;;;;9502062;23;20194;-85
2023/03/04 04:36:27;;;;;;;34.47;14.00;;;0.60;99.90;;;;;;9504183;23;20140;-84
2023/03/04 04:40:12;;;;;;;31.60;14.10;;;1.00;99.90;;;;;;9506194;23;20167;-85
2023/03/04 04:43:58;;;;;;;31.30;13.27;;;0.60;99.90;;;;;;9509261;23;20168;-84
2023/03/04 04:47:44;;;;;;;29.03;12.73;;;0.60;99.90;;;;;;9503768;23;20152;-83
2023/03/04 04:51:30;;;;;;;30.40;13.23;;;0.70;99.90;;;;;;9501491;23;20302;-83
2023/03/04 04:55:16;;;;;;;30.60;12.93;;;0.70;99.90;;;;;;9503741;23;20252;-84
2023/03/04 04:59:04;;;;;;;32.83;13.83;;;0.70;99.90;;;;;;9477930;23;20218;-83
2023/03/04 05:02:50;;;;;;;28.80;13.37;;;0.60;99.90;;;;;;9502396;23;20262;-83
2023/03/04 05:06:35;;;;;;;32.10;13.83;;;0.60;99.90;;;;;;9501853;23;20223;-85
2023/03/04 05:10:21;;;;;;;30.03;14.07;;;0.70;99.90;;;;;;9478160;23;20167;-83
2023/03/04 05:14:07;;;;;;;29.77;13.37;;;0.70;99.90;;;;;;9501827;23;20191;-83
2023/03/04 05:17:52;;;;;;;29.53;13.60;;;0.70;99.90;;;;;;9501946;23;20184;-84
2023/03/04 05:21:38;;;;;;;31.40;13.20;;;0.70;99.90;;;;;;9501405;23;20160;-84
2023/03/04 05:25:24;;;;;;;28.03;13.60;;;0.80;99.90;;;;;;9501313;23;20184;-83
2023/03/04 05:29:09;;;;;;;32.77;13.60;;;0.70;99.90;;;;;;9501765;23;20502;-83
2023/03/04 05:32:55;;;;;;;30.80;13.27;;;0.70;99.90;;;;;;9501624;23;20210;-84
2023/03/04 05:36:41;;;;;;;28.97;12.97;;;0.70;99.90;;;;;;9476412;23;20164;-83
2023/03/04 05:40:26;;;;;;;31.37;12.73;;;0.80;99.90;;;;;;9503211;23;20137;-83
2023/03/04 05:44:12;;;;;;;31.60;14.03;;;0.80;99.90;;;;;;9502662;23;20175;-84
2023/03/04 05:47:58;;;;;;;33.50;12.93;;;0.80;99.90;;;;;;9477089;23;20161;-84
2023/03/04 05:51:43;;;;;;;33.77;13.87;;;0.80;99.90;;;;;;9504896;23;20207;-84
2023/03/04 05:55:29;;;;;;;29.40;13.00;;;0.80;99.90;;;;;;9501715;23;20167;-83
2023/03/04 05:59:19;;;;;;;29.90;11.97;;;0.70;99.90;;;;;;9501689;23;20178;-84
2023/03/04 06:03:04;;;;;;;29.67;12.57;;;0.80;99.90;;;;;;9500829;23;20203;-83
2023/03/04 06:06:50;;;;;;;31.13;12.77;;;0.80;99.90;;;;;;9500454;23;20190;-83
2023/03/04 06:10:36;;;;;;;27.13;12.17;;;0.80;99.90;;;;;;9476665;23;20164;-83
2023/03/04 06:14:22;;;;;;;31.53;12.60;;;0.80;99.90;;;;;;9500366;23;20211;-83
2023/03/04 06:18:07;;;;;;;33.63;12.80;;;0.80;99.90;;;;;;9501549;23;20168;-83
2023/03/04 06:21:53;;;;;;;31.30;12.93;;;0.80;99.90;;;;;;9501758;23;20163;-83
2023/03/04 06:25:39;;;;;;;29.70;13.07;;;0.80;99.90;;;;;;9538650;23;20152;-84
2023/03/04 06:29:24;;;;;;;26.80;12.30;;;0.80;99.90;;;;;;9488664;23;20172;-83
2023/03/04 06:33:10;;;;;;;34.63;13.13;;;0.80;99.90;;;;;;9500565;23;20184;-84
2023/03/04 06:36:55;;;;;;;30.67;12.33;;;0.80;99.90;;;;;;9500030;23;20243;-83
2023/03/04 06:40:41;;;;;;;34.13;13.27;;;0.90;99.90;;;;;;9500485;23;20218;-84
2023/03/04 06:44:27;;;;;;;24.10;11.67;;;0.90;99.90;;;;;;9500510;23;20267;-83
2023/03/04 06:48:12;;;;;;;31.43;12.80;;;0.90;99.90;;;;;;9501728;23;20167;-83
2023/03/04 06:51:58;;;;;;;31.57;13.23;;;0.90;99.90;;;;;;9501340;23;20164;-84
2023/03/04 06:55:44;;;;;;;39.13;13.13;;;0.90;99.90;;;;;;9500813;23;20625;-88
2023/03/04 06:59:29;;;;;;;28.07;13.13;;;0.90;99.90;;;;;;9499716;23;20188;-87
2023/03/04 07:03:15;;;;;;;31.70;12.73;;;0.90;99.90;;;;;;9501035;23;20188;-85
2023/03/04 07:07:01;;;;;;;42.97;13.60;;;0.90;99.90;;;;;;9475756;23;20194;-84
2023/03/04 07:10:47;;;;;;;30.67;12.40;;;0.90;99.90;;;;;;9503219;23;20153;-83
2023/03/04 07:14:33;;;;;;;33.40;12.87;;;1.00;99.90;;;;;;9502427;23;20250;-85
2023/03/04 07:18:19;;;;;;;29.40;12.13;;;0.90;99.90;;;;;;9500539;23;20191;-85
2023/03/04 07:22:05;;;;;;;31.50;12.57;;;0.90;99.90;;;;;;9501431;23;20172;-85
2023/03/04 07:25:50;;;;;;;31.20;11.53;;;1.00;99.90;;;;;;9502116;23;20211;-85
2023/03/04 07:29:36;;;;;;;31.23;12.30;;;1.00;99.90;;;;;;9500370;23;20199;-86
2023/03/04 07:33:21;;;;;;;31.23;12.23;;;1.00;99.90;;;;;;9500185;23;20234;-85
2023/03/04 07:37:07;;;;;;;27.97;12.00;;;1.10;99.90;;;;;;9498502;23;20187;-86
2023/03/04 07:40:58;;;;;;;35.73;13.10;;;1.00;99.90;;;;;;9500939;23;20235;-84
2023/03/04 07:44:44;;;;;;;34.87;13.23;;;1.00;99.90;;;;;;9499162;23;20282;-86
2023/03/04 07:48:30;;;;;;;34.83;15.10;;;1.00;99.90;;;;;;9501223;23;20168;-87
2023/03/04 07:52:15;;;;;;;37.80;13.90;;;1.00;99.90;;;;;;9504048;23;20179;-85
2023/03/04 07:56:01;;;;;;;31.70;13.20;;;1.00;99.90;;;;;;9501066;23;20489;-86
2023/03/04 07:59:47;;;;;;;36.37;14.13;;;1.00;99.90;;;;;;9475831;23;20191;-85
2023/03/04 08:03:32;;;;;;;35.53;12.97;;;1.00;99.90;;;;;;9503623;23;20187;-84
2023/03/04 08:07:18;;;;;;;36.30;13.57;;;1.10;99.90;;;;;;9502807;23;20186;-83
2023/03/04 08:11:09;;;;;;;28.83;12.83;;;1.10;99.90;;;;;;9501704;23;20287;-84
2023/03/04 08:14:55;;;;;;;28.13;11.90;;;1.10;99.90;;;;;;9506483;23;20258;-83
2023/03/04 08:18:46;;;;;;;32.03;11.83;;;1.20;99.90;;;;;;9504265;23;20202;-83
2023/03/04 08:22:32;;;;;;;26.30;12.40;;;1.20;99.90;;;;;;9505085;23;20192;-83
2023/03/04 08:26:21;;;;;;;34.90;13.17;;;1.20;99.90;;;;;;9545977;23;20183;-85
2023/03/04 08:30:07;;;;;;;35.50;14.20;;;1.20;99.90;;;;;;9516118;23;20232;-86
2023/03/04 08:33:53;;;;;;;29.87;12.10;;;1.20;99.90;;;;;;9516757;23;20244;-86
2023/03/04 08:37:39;;;;;;;30.57;12.47;;;1.30;99.90;;;;;;9503514;23;20195;-86
2023/03/04 08:41:26;;;;;;;33.37;12.00;;;1.30;99.90;;;;;;9508092;23;20223;-86
2023/03/04 08:45:11;;;;;;;27.87;11.80;;;1.30;99.90;;;;;;9507384;23;20195;-86
2023/03/04 08:48:57;;;;;;;29.87;11.90;;;1.40;99.90;;;;;;9502150;23;20250;-85
2023/03/04 08:52:43;;;;;;;24.63;11.43;;;1.40;99.90;;;;;;9504715;23;20187;-85
2023/03/04 08:56:28;;;;;;;30.17;11.53;;;1.40;99.90;;;;;;9482076;23;20192;-87
2023/03/04 09:00:15;;;;;;;30.53;12.07;;;1.60;99.90;;;;;;9506678;23;20188;-86
2023/03/04 09:04:00;;;;;;;35.10;12.47;;;1.40;99.90;;;;;;9506497;23;20618;-86
2023/03/04 09:07:46;;;;;;;34.80;12.67;;;1.50;99.90;;;;;;9479962;23;20184;-85
2023/03/04 09:11:32;;;;;;;29.70;11.90;;;1.50;99.90;;;;;;9506587;23;20171;-86
2023/03/04 09:15:18;;;;;;;25.10;11.43;;;1.50;99.90;;;;;;9480434;23;20184;-88
2023/03/04 09:19:03;;;;;;;29.27;11.87;;;1.60;99.90;;;;;;9479958;23;20198;-86
2023/03/04 09:22:49;;;;;;;23.97;11.73;;;1.60;99.90;;;;;;9505938;23;20211;-86
2023/03/04 09:26:35;;;;;;;26.77;11.20;;;1.60;99.90;;;;;;9505678;23;20242;-86
2023/03/04 09:30:21;;;;;;;25.30;10.93;;;1.60;99.90;;;;;;9507022;23;20220;-85
2023/03/04 09:34:06;;;;;;;35.00;16.50;;;1.70;99.90;;;;;;9502366;23;20398;-86
2023/03/04 09:37:53;;;;;;;29.87;12.20;;;1.70;99.90;;;;;;9504823;23;20187;-85
2023/03/04 09:41:56;;;;;;;25.87;10.97;;;1.80;99.90;;;;;;9506942;23;20156;-86
2023/03/04 09:45:50;;;;;;;23.57;10.63;;;1.70;99.90;;;;;;9505830;23;20148;-86
2023/03/04 09:49:39;;;;;;;25.00;10.47;;;1.70;99.90;;;;;;9486525;23;20149;-86
2023/03/04 09:53:45;;;;;;;28.50;11.13;;;1.70;99.90;;;;;;9504237;23;20184;-86
2023/03/04 09:57:46;;;;;;;25.93;9.67;;;1.80;99.90;;;;;;9503410;23;20184;-86
2023/03/04 10:01:53;;;;;;;22.50;10.17;;;1.80;99.90;;;;;;9502901;23;20187;-86
2023/03/04 10:06:08;;;;;;;18.73;9.97;;;1.90;99.90;;;;;;9506439;23;20183;-86
2023/03/04 10:10:02;;;;;;;21.37;9.23;;;1.90;99.90;;;;;;9497780;23;20219;-86
2023/03/04 10:14:15;;;;;;;22.67;9.80;;;1.90;99.90;;;;;;9504542;23;20203;-85
2023/03/04 10:18:22;;;;;;;27.20;9.80;;;2.00;99.90;;;;;;9504056;23;20271;-87
2023/03/04 10:22:54;;;;;;;24.30;10.20;;;2.00;99.90;;;;;;9502459;23;20176;-83
2023/03/04 10:26:47;;;;;;;26.60;9.87;;;2.00;99.90;;;;;;9519953;23;20187;-83
2023/03/04 10:30:38;;;;;;;19.47;8.90;;;2.10;99.90;;;;;;9505158;23;20230;-83
2023/03/04 10:34:24;;;;;;;24.13;9.40;;;2.10;99.90;;;;;;9503006;23;20231;-87
2023/03/04 10:38:12;;;;;;;21.23;9.73;;;2.10;99.90;;;;;;9503417;23;20272;-84
2023/03/04 10:42:05;;;;;;;18.30;8.93;;;2.30;99.90;;;;;;9507046;23;20164;-87
2023/03/04 10:45:56;;;;;;;23.60;9.37;;;2.10;99.90;;;;;;9506337;23;20210;-86
2023/03/04 10:49:52;;;;;;;32.00;12.20;;;2.20;99.90;;;;;;9504101;23;20164;-86
2023/03/04 10:53:40;;;;;;;28.80;12.77;;;2.20;99.90;;;;;;9505094;23;20190;-87
2023/03/04 10:57:38;;;;;;;20.50;9.57;;;2.20;99.90;;;;;;9507540;23;20188;-87
2023/03/04 11:01:24;;;;;;;18.77;8.43;;;2.40;99.90;;;;;;9505954;23;20168;-86
2023/03/04 11:05:21;;;;;;;22.73;7.97;;;2.30;99.90;;;;;;9505496;23;20251;-86
2023/03/04 11:09:30;;;;;;;21.27;8.60;;;2.20;99.90;;;;;;7869125;28;20528;-87
2023/03/04 11:13:19;;;;;;;22.13;9.33;;;2.30;99.90;;;;;;7874177;28;20204;-86
2023/03/04 11:17:22;;;;;;;17.33;7.60;;;2.30;99.90;;;;;;7865968;28;20221;-87
2023/03/04 11:21:22;;;;;;;15.50;7.87;;;2.30;99.90;;;;;;7865789;28;20192;-87
2023/03/04 11:25:24;;;;;;;23.17;11.00;;;2.30;99.90;;;;;;7865041;28;20215;-86
2023/03/04 11:29:31;;;;;;;20.73;7.93;;;2.30;99.90;;;;;;7864404;28;20800;-87
2023/03/04 11:33:41;;;;;;;24.40;8.60;;;2.30;99.90;;;;;;7865803;28;20265;-86
2023/03/04 11:37:38;;;;;;;14.83;7.07;;;2.40;99.90;;;;;;7864495;28;20190;-87
2023/03/04 11:41:38;;;;;;;16.83;6.67;;;2.40;99.90;;;;;;7863266;28;20562;-86
2023/03/04 11:45:40;;;;;;;13.80;6.90;;;2.40;99.90;;;;;;7865434;28;20244;-87
2023/03/04 11:49:53;;;;;;;17.70;7.87;;;2.50;99.90;;;;;;7850838;28;20181;-83
2023/03/04 11:53:55;;;;;;;16.70;6.40;;;2.60;99.90;;;;;;7860950;28;20224;-82
2023/03/04 11:57:59;;;;;;;16.03;6.20;;;2.60;99.90;;;;;;7863689;28;20177;-87
2023/03/04 12:01:45;;;;;;;16.63;6.03;;;2.60;99.90;;;;;;7859908;28;20188;-87
2023/03/04 12:05:46;;;;;;;14.93;6.60;;;2.60;99.90;;;;;;7842393;28;20185;-85
2023/03/04 12:10:10;;;;;;;12.23;7.00;;;2.70;99.90;;;;;;7857733;28;20174;-86
2023/03/04 12:14:08;;;;;;;14.53;7.17;;;2.70;99.90;;;;;;7830816;28;20470;-82
2023/03/04 12:18:26;;;;;;;14.30;6.77;;;2.60;99.90;;;;;;7826686;28;20193;-87
2023/03/04 12:22:31;;;;;;;16.67;6.30;;;2.70;99.90;;;;;;7812808;28;20265;-87
2023/03/04 12:26:34;;;;;;;16.37;6.37;;;2.70;99.90;;;;;;7874125;28;20213;-87
2023/03/04 12:30:26;;;;;;;12.87;6.83;;;2.70;99.90;;;;;;7832829;28;20185;-86
2023/03/04 12:34:49;;;;;;;15.13;6.60;;;2.70;99.90;;;;;;7840291;28;20198;-87
2023/03/04 12:38:38;;;;;;;15.87;7.00;;;2.70;99.90;;;;;;7837862;28;20635;-87
2023/03/04 12:42:32;;;;;;;14.93;6.67;;;2.70;99.90;;;;;;7836409;28;20248;-87
2023/03/04 12:46:41;;;;;;;16.40;6.57;;;2.80;99.90;;;;;;7840189;28;20198;-88
2023/03/04 12:50:39;;;;;;;14.47;6.17;;;2.80;99.90;;;;;;7837678;28;20189;-88
2023/03/04 12:54:33;;;;;;;15.63;7.13;;;2.90;99.90;;;;;;7842020;28;20221;-87
2023/03/04 12:58:23;;;;;;;17.73;6.70;;;2.90;99.90;;;;;;7829402;28;20251;-87
2023/03/04 13:02:09;;;;;;;14.67;6.13;;;2.90;99.90;;;;;;7840050;28;20206;-86
2023/03/04 13:06:09;;;;;;;17.23;5.83;;;3.00;99.90;;;;;;7840684;28;20212;-86
2023/03/04 13:10:00;;;;;;;19.57;6.60;;;3.00;99.90;;;;;;7837462;28;20267;-86
2023/03/04 13:13:59;;;;;;;16.73;6.00;;;3.00;99.90;;;;;;7839570;28;20210;-87
2023/03/04 13:17:56;;;;;;;11.20;6.50;;;3.00;99.90;;;;;;7831284;28;20268;-86
2023/03/04 13:21:47;;;;;;;10.77;6.00;;;3.10;99.90;;;;;;7836133;28;20625;-87
2023/03/04 13:25:43;;;;;;;12.20;6.73;;;3.20;99.90;;;;;;7838507;28;20186;-87
2023/03/04 13:29:28;;;;;;;12.57;5.50;;;3.20;99.90;;;;;;7837308;28;20292;-87
2023/03/04 13:33:14;;;;;;;9.60;5.43;;;3.20;99.90;;;;;;7822050;28;20210;-86
2023/03/04 13:36:59;;;;;;;16.30;5.97;;;3.30;99.90;;;;;;7830901;28;20190;-86
2023/03/04 13:41:11;;;;;;;11.53;5.50;;;3.30;99.90;;;;;;7835238;28;20190;-87
2023/03/04 13:44:58;;;;;;;8.83;5.17;;;3.20;99.90;;;;;;7835186;28;20214;-86
2023/03/04 13:48:50;;;;;;;11.83;5.20;;;3.30;99.90;;;;;;7841471;28;20216;-86
2023/03/04 13:52:41;;;;;;;9.57;4.93;;;3.30;99.90;;;;;;7833850;28;20252;-87
2023/03/04 13:56:30;;;;;;;10.93;5.57;;;3.20;99.90;;;;;;7836924;28;20209;-86
2023/03/04 14:00:15;;;;;;;7.30;4.73;;;3.40;99.90;;;;;;7836787;28;20560;-86
2023/03/04 14:04:20;;;;;;;7.37;4.40;;;3.40;99.90;;;;;;7831718;28;20270;-86
2023/03/04 14:08:19;;;;;;;10.47;4.07;;;3.40;99.90;;;;;;7823972;28;20217;-86
2023/03/04 14:12:13;;;;;;;13.20;5.60;;;3.50;99.90;;;;;;7829918;28;20209;-86
2023/03/04 14:15:59;;;;;;;6.43;3.40;;;3.50;99.90;;;;;;7838559;28;20192;-87
2023/03/04 14:19:46;;;;;;;11.33;3.60;;;3.60;99.90;;;;;;7829232;28;20183;-86
2023/03/04 14:23:34;;;;;;;7.17;3.40;;;3.70;99.90;;;;;;7848869;28;20277;-86
2023/03/04 14:27:20;;;;;;;9.03;3.57;;;3.70;99.90;;;;;;7842973;28;20215;-87
2023/03/04 14:31:15;;;;;;;9.93;4.83;;;3.70;99.90;;;;;;7819577;28;20224;-86
2023/03/04 14:35:16;;;;;;;5.70;3.00;;;3.70;99.90;;;;;;7836494;28;20197;-86
2023/03/04 14:39:05;;;;;;;8.33;3.73;;;3.70;99.90;;;;;;7836250;28;20193;-86
2023/03/04 14:42:57;;;;;;;6.03;2.83;;;3.70;99.90;;;;;;7818167;28;20229;-86
2023/03/04 14:46:58;;;;;;;8.13;3.10;;;3.80;99.90;;;;;;7836825;28;20686;-86
2023/03/04 14:51:02;;;;;;;7.87;3.93;;;3.70;99.90;;;;;;7850115;28;20178;-86
2023/03/04 14:55:14;;;;;;;5.33;3.17;;;3.70;99.90;;;;;;7833958;28;20208;-86
2023/03/04 14:58:59;;;;;;;9.00;2.70;;;3.80;99.90;;;;;;7835706;28;20610;-87
2023/03/04 15:02:50;;;;;;;5.20;2.50;;;3.70;99.90;;;;;;7828010;28;20210;-86
2023/03/04 15:06:56;;;;;;;9.10;3.10;;;3.80;99.90;;;;;;7834849;28;20286;-86
2023/03/04 15:10:42;;;;;;;10.17;2.73;;;3.80;99.90;;;;;;7835116;28;20241;-86
2023/03/04 15:14:48;;;;;;;7.83;3.07;;;3.80;99.90;;;;;;7832052;28;20215;-88
2023/03/04 15:18:35;;;;;;;9.07;2.93;;;3.80;99.90;;;;;;7804784;28;20229;-87
2023/03/04 15:22:20;;;;;;;10.93;3.57;;;3.90;99.90;;;;;;7836014;28;20297;-86
2023/03/04 15:26:10;;;;;;;9.77;3.00;;;3.90;99.90;;;;;;7823620;28;20216;-87
2023/03/04 15:29:58;;;;;;;11.07;3.03;;;3.90;99.90;;;;;;7836067;28;20178;-87
2023/03/04 15:33:43;;;;;;;8.10;2.33;;;3.90;99.90;;;;;;7833877;28;20198;-86
2023/03/04 15:37:29;;;;;;;6.73;2.43;;;3.90;99.90;;;;;;7824276;28;20190;-86
2023/03/04 15:41:22;;;;;;;7.77;2.57;;;3.80;99.90;;;;;;7835421;28;20186;-87
2023/03/04 15:45:20;;;;;;;6.83;1.80;;;3.90;99.90;;;;;;7833124;28;20197;-86
2023/03/04 15:49:05;;;;;;;5.97;1.80;;;3.80;99.90;;;;;;7836525;28;20208;-86
2023/03/04 15:52:53;;;;;;;6.73;1.67;;;3.80;99.90;;;;;;7836324;28;20202;-88
2023/03/04 15:56:39;;;;;;;8.70;2.30;;;3.90;99.90;;;;;;7837918;28;20190;-87
2023/03/04 16:00:25;;;;;;;11.57;2.13;;;3.90;99.90;;;;;;7841719;28;20212;-87
2023/03/04 16:04:15;;;;;;;8.33;2.43;;;3.70;99.90;;;;;;7841238;28;20205;-88
2023/03/04 16:08:01;;;;;;;9.07;1.90;;;3.70;99.90;;;;;;7835061;28;20409;-86
2023/03/04 16:11:47;;;;;;;10.00;2.23;;;3.80;99.90;;;;;;7843032;28;20182;-86
2023/03/04 16:15:32;;;;;;;6.53;2.47;;;3.80;99.90;;;;;;7815767;28;20683;-86
2023/03/04 16:19:18;;;;;;;21.87;6.93;;;3.70;99.90;;;;;;7834726;28;20648;-86
2023/03/04 16:23:04;;;;;;;13.13;4.87;;;3.70;99.90;;;;;;7855422;28;20217;-85
2023/03/04 16:26:51;;;;;;;11.23;2.23;;;3.70;99.90;;;;;;7869553;28;20204;-85
2023/03/04 16:30:37;;;;;;;5.87;2.10;;;3.80;99.90;;;;;;7836327;28;20205;-85
2023/03/04 16:34:23;;;;;;;23.77;9.73;;;3.60;99.90;;;;;;7830045;28;20203;-86
2023/03/04 16:38:26;;;;;;;11.83;3.70;;;3.60;99.90;;;;;;7840644;28;20182;-86
2023/03/04 16:42:15;;;;;;;7.37;3.83;;;3.50;99.90;;;;;;7838793;28;20206;-86
2023/03/04 16:46:01;;;;;;;11.03;4.90;;;3.50;99.90;;;;;;7828023;28;20686;-86
2023/03/04 16:49:48;;;;;;;9.67;2.60;;;3.50;99.90;;;;;;7823712;28;20186;-87
2023/03/04 16:53:37;;;;;;;6.93;3.07;;;3.50;99.90;;;;;;7838701;28;20198;-86
2023/03/04 16:57:23;;;;;;;5.07;1.63;;;3.50;99.90;;;;;;7833043;28;20606;-86
2023/03/04 17:01:17;;;;;;;5.90;2.03;;;3.60;99.90;;;;;;7822074;28;20182;-87
2023/03/04 17:05:03;;;;;;;6.80;1.87;;;3.50;99.90;;;;;;7824709;28;20259;-86
2023/03/04 17:08:48;;;;;;;6.33;1.80;;;3.50;99.90;;;;;;7840696;28;20256;-86
2023/03/04 17:12:34;;;;;;;10.27;2.33;;;3.50;99.90;;;;;;7841615;28;20198;-86
2023/03/04 17:16:20;;;;;;;8.90;2.10;;;3.50;99.90;;;;;;7837571;28;20197;-87
2023/03/04 17:20:07;;;;;;;6.00;1.50;;;3.40;99.90;;;;;;7836099;28;20206;-86
2023/03/04 17:23:53;;;;;;;5.17;1.83;;;3.50;99.90;;;;;;7834017;28;20687;-86
2023/03/04 17:27:39;;;;;;;7.60;1.93;;;3.40;99.90;;;;;;7835607;28;20202;-86
2023/03/04 17:31:24;;;;;;;6.83;1.83;;;3.40;99.90;;;;;;7843078;28;20249;-86
2023/03/04 17:35:10;;;;;;;7.77;2.03;;;3.40;99.90;;;;;;7833912;28;20210;-86
2023/03/04 17:38:56;;;;;;;6.87;2.33;;;3.40;99.90;;;;;;7836384;28;20197;-86
2023/03/04 17:42:42;;;;;;;8.33;2.70;;;3.40;99.90;;;;;;7840484;28;20197;-86
2023/03/04 17:46:28;;;;;;;5.47;1.90;;;3.40;99.90;;;;;;7837571;28;20216;-86
2023/03/04 17:50:14;;;;;;;9.10;2.03;;;3.40;99.90;;;;;;7840566;28;20174;-86
2023/03/04 17:54:00;;;;;;;7.80;1.97;;;3.40;99.90;;;;;;7845299;28;20209;-85
2023/03/04 17:57:46;;;;;;;6.30;2.17;;;3.40;99.90;;;;;;7839025;28;20781;-86
2023/03/04 18:01:31;;;;;;;11.30;2.43;;;3.40;99.90;;;;;;7840568;28;20206;-86
2023/03/04 18:05:17;;;;;;;8.30;3.13;;;3.40;99.90;;;;;;7838990;28;20208;-86
2023/03/04 18:09:03;;;;;;;8.27;3.80;;;3.30;99.90;;;;;;7825495;28;20244;-86
2023/03/04 18:12:49;;;;;;;10.83;3.93;;;3.30;99.90;;;;;;7836020;28;20198;-86
2023/03/04 18:16:35;;;;;;;14.17;6.50;;;3.30;99.90;;;;;;7812410;28;20188;-86
2023/03/04 18:20:20;;;;;;;12.63;4.90;;;3.20;99.90;;;;;;7842512;28;20185;-85
2023/03/04 18:24:06;;;;;;;12.73;4.60;;;3.40;99.90;;;;;;7873562;28;20255;-86
2023/03/04 18:27:52;;;;;;;7.30;2.30;;;3.30;99.90;;;;;;7828940;28;20198;-86
2023/03/04 18:31:37;;;;;;;10.27;3.67;;;3.20;99.90;;;;;;7808861;28;20182;-86
2023/03/04 18:35:23;;;;;;;9.33;2.73;;;3.20;99.90;;;;;;7831432;28;20210;-87
2023/03/04 18:39:09;;;;;;;8.10;3.67;;;3.30;99.90;;;;;;7838841;28;20217;-86
2023/03/04 18:42:58;;;;;;;15.23;4.47;;;3.20;99.90;;;;;;7841131;28;20281;-84
2023/03/04 18:46:51;;;;;;;12.73;3.03;;;3.10;99.90;;;;;;7840009;28;20744;-86
2023/03/04 18:50:37;;;;;;;15.53;5.07;;;3.10;99.90;;;;;;7818076;28;20189;-86
2023/03/04 18:54:22;;;;;;;15.67;4.97;;;3.10;99.90;;;;;;7816550;28;20206;-86
2023/03/04 18:58:08;;;;;;;9.40;3.57;;;3.10;99.90;;;;;;7811717;28;20349;-86
2023/03/04 19:01:54;;;;;;;12.33;3.27;;;3.10;99.90;;;;;;7824094;28;20186;-84
2023/03/04 19:05:40;;;;;;;7.30;2.60;;;3.10;99.90;;;;;;7832238;28;20281;-85
2023/03/04 19:09:26;;;;;;;11.17;3.63;;;3.10;99.90;;;;;;7832956;28;20209;-85
2023/03/04 19:13:14;;;;;;;9.10;3.20;;;3.10;99.90;;;;;;7831662;28;20258;-85
2023/03/04 19:17:00;;;;;;;8.77;2.83;;;3.10;99.90;;;;;;7831899;28;20227;-85
2023/03/04 19:20:45;;;;;;;11.57;3.67;;;3.00;99.90;;;;;;7836185;28;20220;-85
2023/03/04 19:24:32;;;;;;;7.50;2.47;;;3.20;99.90;;;;;;7828371;28;20500;-85
2023/03/04 19:28:18;;;;;;;12.03;2.97;;;3.00;99.90;;;;;;7829848;28;20202;-85
2023/03/04 19:32:04;;;;;;;12.60;3.10;;;3.00;99.90;;;;;;7828281;28;20181;-85
2023/03/04 19:35:49;;;;;;;14.73;4.80;;;3.00;99.90;;;;;;7825029;28;20190;-85
2023/03/04 19:39:35;;;;;;;12.50;3.23;;;3.00;99.90;;;;;;7834478;28;20657;-86
2023/03/04 19:43:21;;;;;;;11.53;3.00;;;2.90;99.90;;;;;;7842519;28;20272;-86
2023/03/04 19:47:07;;;;;;;10.20;2.90;;;3.00;99.90;;;;;;7835087;28;20245;-85